GYR weather

Phoenix Goodyear Airport
Goodyear, Arizona, United States

Public forecast

Using degrees Fahrenheit for public forecast. Weather courtesy of forecast.io.

Current aviation weather report (METAR) for Phoenix Goodyear Airport

Retrieved 2020/02/20 03:47 UTC (38 minutes ago):

KGYR 200347Z 21004KT 10SM FEW250 16/02 A3001 RMK LAST

Closest aviation forecast (TAF) to Phoenix Goodyear Airport

Closest forecast is Luke Air Force Base, 6.8 nm (12.5 km) N. Retrieved 2020-02-20 04:03 UTC (22 minutes ago):

TAF KLUF 200400Z 2004/2110 VRB06KT 9999 SKC QNH2999INS BECMG 2021/2022 VRB06KT 9999 BKN250 QNH3004INS BECMG 2108/2109 08012G20KT 9999 SCT100 BKN150 QNH3004INS TX26/2023Z TN08/2014Z